sensor_id;sensor_type;location;lat;lon;timestamp;P1;durP1;ratioP1;P2;durP2;ratioP2
62423;SDS011;48463;43.604;3.872;2023-04-24T00:02:14;7.07;;;3.63;;
62423;SDS011;48463;43.604;3.872;2023-04-24T00:04:40;5.90;;;3.42;;
62423;SDS011;48463;43.604;3.872;2023-04-24T00:07:09;8.02;;;3.10;;
62423;SDS011;48463;43.604;3.872;2023-04-24T00:09:35;9.13;;;3.47;;
62423;SDS011;48463;43.604;3.872;2023-04-24T00:12:01;5.47;;;3.42;;
62423;SDS011;48463;43.604;3.872;2023-04-24T00:14:29;4.20;;;2.78;;
62423;SDS011;48463;43.604;3.872;2023-04-24T00:16:59;6.95;;;3.55;;
62423;SDS011;48463;43.604;3.872;2023-04-24T00:19:27;8.02;;;3.65;;
62423;SDS011;48463;43.604;3.872;2023-04-24T00:21:53;8.15;;;3.20;;
62423;SDS011;48463;43.604;3.872;2023-04-24T00:24:20;5.45;;;3.47;;
62423;SDS011;48463;43.604;3.872;2023-04-24T00:26:46;6.75;;;3.38;;
62423;SDS011;48463;43.604;3.872;2023-04-24T00:29:12;6.85;;;3.20;;
62423;SDS011;48463;43.604;3.872;2023-04-24T00:31:37;9.23;;;3.22;;
62423;SDS011;48463;43.604;3.872;2023-04-24T00:34:04;4.07;;;2.53;;
62423;SDS011;48463;43.604;3.872;2023-04-24T00:36:30;6.68;;;2.95;;
62423;SDS011;48463;43.604;3.872;2023-04-24T00:38:57;8.65;;;3.13;;
62423;SDS011;48463;43.604;3.872;2023-04-24T00:41:22;4.78;;;2.90;;
62423;SDS011;48463;43.604;3.872;2023-04-24T00:43:49;6.57;;;3.45;;
62423;SDS011;48463;43.604;3.872;2023-04-24T00:46:15;4.15;;;2.83;;
62423;SDS011;48463;43.604;3.872;2023-04-24T00:48:41;3.90;;;2.42;;
62423;SDS011;48463;43.604;3.872;2023-04-24T00:51:08;9.55;;;3.17;;
62423;SDS011;48463;43.604;3.872;2023-04-24T00:53:34;4.63;;;2.35;;
62423;SDS011;48463;43.604;3.872;2023-04-24T00:56:00;6.63;;;3.03;;
62423;SDS011;48463;43.604;3.872;2023-04-24T00:58:27;6.63;;;3.30;;
62423;SDS011;48463;43.604;3.872;2023-04-24T01:00:52;5.60;;;2.40;;
62423;SDS011;48463;43.604;3.872;2023-04-24T01:03:20;5.78;;;2.90;;
62423;SDS011;48463;43.604;3.872;2023-04-24T01:05:49;9.38;;;3.28;;
62423;SDS011;48463;43.604;3.872;2023-04-24T01:08:15;7.13;;;3.20;;
62423;SDS011;48463;43.604;3.872;2023-04-24T01:10:41;5.78;;;2.35;;
62423;SDS011;48463;43.604;3.872;2023-04-24T01:13:08;3.90;;;2.28;;
62423;SDS011;48463;43.604;3.872;2023-04-24T01:15:34;7.05;;;3.08;;
62423;SDS011;48463;43.604;3.872;2023-04-24T01:18:00;5.05;;;2.85;;
62423;SDS011;48463;43.604;3.872;2023-04-24T01:20:26;6.65;;;2.78;;
62423;SDS011;48463;43.604;3.872;2023-04-24T01:22:54;9.55;;;2.97;;
62423;SDS011;48463;43.604;3.872;2023-04-24T01:25:21;7.55;;;2.60;;
62423;SDS011;48463;43.604;3.872;2023-04-24T01:27:47;5.38;;;2.83;;
62423;SDS011;48463;43.604;3.872;2023-04-24T01:30:13;9.57;;;3.30;;
62423;SDS011;48463;43.604;3.872;2023-04-24T01:32:39;6.45;;;3.15;;
62423;SDS011;48463;43.604;3.872;2023-04-24T01:35:09;4.85;;;2.95;;
62423;SDS011;48463;43.604;3.872;2023-04-24T01:37:35;7.47;;;2.70;;
62423;SDS011;48463;43.604;3.872;2023-04-24T01:40:02;8.65;;;3.22;;
62423;SDS011;48463;43.604;3.872;2023-04-24T01:42:31;9.70;;;3.60;;
62423;SDS011;48463;43.604;3.872;2023-04-24T01:44:57;6.90;;;2.92;;
62423;SDS011;48463;43.604;3.872;2023-04-24T01:47:23;7.93;;;3.38;;
62423;SDS011;48463;43.604;3.872;2023-04-24T01:49:49;8.82;;;2.78;;
62423;SDS011;48463;43.604;3.872;2023-04-24T01:52:15;9.35;;;3.60;;
62423;SDS011;48463;43.604;3.872;2023-04-24T01:54:42;9.57;;;3.55;;
62423;SDS011;48463;43.604;3.872;2023-04-24T01:57:08;7.35;;;3.55;;
62423;SDS011;48463;43.604;3.872;2023-04-24T01:59:34;5.20;;;2.67;;
62423;SDS011;48463;43.604;3.872;2023-04-24T02:02:01;11.75;;;3.78;;
62423;SDS011;48463;43.604;3.872;2023-04-24T02:04:27;10.90;;;3.55;;
62423;SDS011;48463;43.604;3.872;2023-04-24T02:06:53;10.32;;;5.30;;
62423;SDS011;48463;43.604;3.872;2023-04-24T02:09:19;13.63;;;5.60;;
62423;SDS011;48463;43.604;3.872;2023-04-24T02:11:45;9.73;;;5.35;;
62423;SDS011;48463;43.604;3.872;2023-04-24T02:14:10;7.80;;;4.60;;
62423;SDS011;48463;43.604;3.872;2023-04-24T02:16:36;6.35;;;4.82;;
62423;SDS011;48463;43.604;3.872;2023-04-24T02:19:02;11.13;;;5.00;;
62423;SDS011;48463;43.604;3.872;2023-04-24T02:21:28;11.93;;;5.70;;
62423;SDS011;48463;43.604;3.872;2023-04-24T02:23:55;7.97;;;5.32;;
62423;SDS011;48463;43.604;3.872;2023-04-24T02:26:21;7.75;;;5.18;;
62423;SDS011;48463;43.604;3.872;2023-04-24T02:28:47;8.20;;;4.80;;
62423;SDS011;48463;43.604;3.872;2023-04-24T02:31:13;13.25;;;6.03;;
62423;SDS011;48463;43.604;3.872;2023-04-24T02:33:39;12.05;;;5.72;;
62423;SDS011;48463;43.604;3.872;2023-04-24T02:36:05;7.72;;;5.13;;
62423;SDS011;48463;43.604;3.872;2023-04-24T02:38:31;13.73;;;5.72;;
62423;SDS011;48463;43.604;3.872;2023-04-24T02:40:56;8.77;;;5.15;;
62423;SDS011;48463;43.604;3.872;2023-04-24T02:43:22;8.40;;;5.63;;
62423;SDS011;48463;43.604;3.872;2023-04-24T02:45:48;10.38;;;5.18;;
62423;SDS011;48463;43.604;3.872;2023-04-24T02:48:13;10.60;;;5.28;;
62423;SDS011;48463;43.604;3.872;2023-04-24T02:50:39;10.75;;;5.40;;
62423;SDS011;48463;43.604;3.872;2023-04-24T02:53:05;11.35;;;5.57;;
62423;SDS011;48463;43.604;3.872;2023-04-24T02:55:31;12.70;;;4.85;;
62423;SDS011;48463;43.604;3.872;2023-04-24T02:57:57;6.03;;;4.75;;
62423;SDS011;48463;43.604;3.872;2023-04-24T03:00:23;13.70;;;5.70;;
62423;SDS011;48463;43.604;3.872;2023-04-24T03:02:48;10.18;;;5.40;;
62423;SDS011;48463;43.604;3.872;2023-04-24T03:05:14;12.95;;;6.10;;
62423;SDS011;48463;43.604;3.872;2023-04-24T03:07:40;10.80;;;6.00;;
62423;SDS011;48463;43.604;3.872;2023-04-24T03:10:06;9.98;;;5.68;;
62423;SDS011;48463;43.604;3.872;2023-04-24T03:12:33;8.48;;;5.65;;
62423;SDS011;48463;43.604;3.872;2023-04-24T03:14:58;11.02;;;6.13;;
62423;SDS011;48463;43.604;3.872;2023-04-24T03:17:24;12.15;;;6.40;;
62423;SDS011;48463;43.604;3.872;2023-04-24T03:19:50;8.38;;;6.38;;
62423;SDS011;48463;43.604;3.872;2023-04-24T03:22:15;16.42;;;5.80;;
62423;SDS011;48463;43.604;3.872;2023-04-24T03:24:41;11.68;;;5.88;;
62423;SDS011;48463;43.604;3.872;2023-04-24T03:27:07;9.05;;;5.80;;
62423;SDS011;48463;43.604;3.872;2023-04-24T03:29:33;13.63;;;5.60;;
62423;SDS011;48463;43.604;3.872;2023-04-24T03:32:00;11.52;;;6.10;;
62423;SDS011;48463;43.604;3.872;2023-04-24T03:34:28;9.35;;;6.40;;
62423;SDS011;48463;43.604;3.872;2023-04-24T03:36:56;7.18;;;5.20;;
62423;SDS011;48463;43.604;3.872;2023-04-24T03:39:27;13.13;;;6.45;;
62423;SDS011;48463;43.604;3.872;2023-04-24T03:41:55;15.15;;;6.43;;
62423;SDS011;48463;43.604;3.872;2023-04-24T03:44:21;9.60;;;6.00;;
62423;SDS011;48463;43.604;3.872;2023-04-24T03:46:47;7.60;;;5.72;;
62423;SDS011;48463;43.604;3.872;2023-04-24T03:49:13;14.15;;;5.85;;
62423;SDS011;48463;43.604;3.872;2023-04-24T03:51:38;9.32;;;5.72;;
62423;SDS011;48463;43.604;3.872;2023-04-24T03:54:04;11.88;;;6.03;;
62423;SDS011;48463;43.604;3.872;2023-04-24T03:56:30;9.00;;;6.30;;
62423;SDS011;48463;43.604;3.872;2023-04-24T03:58:55;8.95;;;5.95;;
62423;SDS011;48463;43.604;3.872;2023-04-24T04:01:21;11.63;;;6.40;;
62423;SDS011;48463;43.604;3.872;2023-04-24T04:03:47;11.10;;;5.63;;
62423;SDS011;48463;43.604;3.872;2023-04-24T04:06:12;7.18;;;5.40;;
62423;SDS011;48463;43.604;3.872;2023-04-24T04:08:38;12.13;;;5.47;;
62423;SDS011;48463;43.604;3.872;2023-04-24T04:11:04;10.02;;;5.75;;
62423;SDS011;48463;43.604;3.872;2023-04-24T04:13:29;8.80;;;5.57;;
62423;SDS011;48463;43.604;3.872;2023-04-24T04:15:55;13.73;;;6.07;;
62423;SDS011;48463;43.604;3.872;2023-04-24T04:18:21;8.23;;;5.53;;
62423;SDS011;48463;43.604;3.872;2023-04-24T04:20:47;7.57;;;5.70;;
62423;SDS011;48463;43.604;3.872;2023-04-24T04:23:12;7.78;;;5.72;;
62423;SDS011;48463;43.604;3.872;2023-04-24T04:25:38;12.68;;;6.10;;
62423;SDS011;48463;43.604;3.872;2023-04-24T04:28:04;10.90;;;6.10;;
62423;SDS011;48463;43.604;3.872;2023-04-24T04:30:29;10.57;;;5.45;;
62423;SDS011;48463;43.604;3.872;2023-04-24T04:32:57;10.98;;;5.78;;
62423;SDS011;48463;43.604;3.872;2023-04-24T04:35:23;9.23;;;6.03;;
62423;SDS011;48463;43.604;3.872;2023-04-24T04:37:49;15.82;;;6.68;;
62423;SDS011;48463;43.604;3.872;2023-04-24T04:40:16;8.55;;;5.60;;
62423;SDS011;48463;43.604;3.872;2023-04-24T04:42:42;9.85;;;6.10;;
62423;SDS011;48463;43.604;3.872;2023-04-24T04:45:11;18.45;;;6.68;;
62423;SDS011;48463;43.604;3.872;2023-04-24T04:47:37;9.43;;;5.43;;
62423;SDS011;48463;43.604;3.872;2023-04-24T04:50:03;13.75;;;6.00;;
62423;SDS011;48463;43.604;3.872;2023-04-24T04:52:30;11.30;;;6.03;;
62423;SDS011;48463;43.604;3.872;2023-04-24T04:54:56;12.38;;;6.28;;
62423;SDS011;48463;43.604;3.872;2023-04-24T04:57:21;14.77;;;6.80;;
62423;SDS011;48463;43.604;3.872;2023-04-24T04:59:47;13.13;;;6.78;;
62423;SDS011;48463;43.604;3.872;2023-04-24T05:02:13;7.25;;;5.45;;
62423;SDS011;48463;43.604;3.872;2023-04-24T05:04:38;6.88;;;5.03;;
62423;SDS011;48463;43.604;3.872;2023-04-24T05:07:04;17.75;;;6.05;;
62423;SDS011;48463;43.604;3.872;2023-04-24T05:09:31;12.02;;;5.53;;
62423;SDS011;48463;43.604;3.872;2023-04-24T05:11:56;15.88;;;6.75;;
62423;SDS011;48463;43.604;3.872;2023-04-24T05:14:22;9.65;;;5.15;;
62423;SDS011;48463;43.604;3.872;2023-04-24T05:16:48;12.65;;;6.07;;
62423;SDS011;48463;43.604;3.872;2023-04-24T05:19:13;9.23;;;5.50;;
62423;SDS011;48463;43.604;3.872;2023-04-24T05:21:40;11.52;;;5.35;;
62423;SDS011;48463;43.604;3.872;2023-04-24T05:24:06;15.95;;;6.15;;
62423;SDS011;48463;43.604;3.872;2023-04-24T05:26:32;14.00;;;5.57;;
62423;SDS011;48463;43.604;3.872;2023-04-24T05:28:57;14.18;;;6.47;;
62423;SDS011;48463;43.604;3.872;2023-04-24T05:31:23;5.97;;;4.72;;
62423;SDS011;48463;43.604;3.872;2023-04-24T05:33:49;6.43;;;4.70;;
62423;SDS011;48463;43.604;3.872;2023-04-24T05:36:14;7.72;;;5.38;;
62423;SDS011;48463;43.604;3.872;2023-04-24T05:38:40;14.32;;;6.07;;
62423;SDS011;48463;43.604;3.872;2023-04-24T05:41:06;9.75;;;5.85;;
62423;SDS011;48463;43.604;3.872;2023-04-24T05:43:31;17.95;;;5.68;;
62423;SDS011;48463;43.604;3.872;2023-04-24T05:45:57;10.27;;;4.95;;
62423;SDS011;48463;43.604;3.872;2023-04-24T05:48:23;9.68;;;5.38;;
62423;SDS011;48463;43.604;3.872;2023-04-24T05:50:48;10.68;;;5.53;;
62423;SDS011;48463;43.604;3.872;2023-04-24T05:53:14;13.20;;;5.75;;
62423;SDS011;48463;43.604;3.872;2023-04-24T05:55:40;14.32;;;5.22;;
62423;SDS011;48463;43.604;3.872;2023-04-24T05:58:06;7.65;;;5.03;;
62423;SDS011;48463;43.604;3.872;2023-04-24T06:00:31;10.15;;;5.55;;
62423;SDS011;48463;43.604;3.872;2023-04-24T06:02:58;12.10;;;5.03;;
62423;SDS011;48463;43.604;3.872;2023-04-24T06:05:25;8.45;;;4.78;;
62423;SDS011;48463;43.604;3.872;2023-04-24T06:07:51;8.45;;;5.18;;
62423;SDS011;48463;43.604;3.872;2023-04-24T06:10:17;14.88;;;6.03;;
62423;SDS011;48463;43.604;3.872;2023-04-24T06:12:42;10.25;;;5.57;;
62423;SDS011;48463;43.604;3.872;2023-04-24T06:15:08;10.38;;;5.50;;
62423;SDS011;48463;43.604;3.872;2023-04-24T06:17:34;12.00;;;5.43;;
62423;SDS011;48463;43.604;3.872;2023-04-24T06:20:00;7.97;;;5.20;;
62423;SDS011;48463;43.604;3.872;2023-04-24T06:22:25;13.70;;;3.42;;
62423;SDS011;48463;43.604;3.872;2023-04-24T06:24:51;22.15;;;16.90;;
62423;SDS011;48463;43.604;3.872;2023-04-24T06:27:17;9.45;;;4.07;;
62423;SDS011;48463;43.604;3.872;2023-04-24T06:29:43;15.13;;;6.18;;
62423;SDS011;48463;43.604;3.872;2023-04-24T06:32:08;10.43;;;3.92;;
62423;SDS011;48463;43.604;3.872;2023-04-24T06:34:34;10.50;;;3.70;;
62423;SDS011;48463;43.604;3.872;2023-04-24T06:37:00;7.15;;;3.83;;
62423;SDS011;48463;43.604;3.872;2023-04-24T06:39:27;13.13;;;6.10;;
62423;SDS011;48463;43.604;3.872;2023-04-24T06:41:53;12.77;;;3.45;;
62423;SDS011;48463;43.604;3.872;2023-04-24T06:44:18;12.43;;;3.53;;
62423;SDS011;48463;43.604;3.872;2023-04-24T06:46:44;10.50;;;3.28;;
62423;SDS011;48463;43.604;3.872;2023-04-24T06:49:10;13.68;;;4.18;;
62423;SDS011;48463;43.604;3.872;2023-04-24T06:51:36;15.80;;;3.10;;
62423;SDS011;48463;43.604;3.872;2023-04-24T06:54:02;15.13;;;4.05;;
62423;SDS011;48463;43.604;3.872;2023-04-24T06:56:30;6.00;;;2.92;;
62423;SDS011;48463;43.604;3.872;2023-04-24T06:59:00;10.32;;;3.63;;
62423;SDS011;48463;43.604;3.872;2023-04-24T07:01:27;10.32;;;2.85;;
62423;SDS011;48463;43.604;3.872;2023-04-24T07:03:52;7.47;;;3.03;;
62423;SDS011;48463;43.604;3.872;2023-04-24T07:06:18;14.85;;;3.22;;
62423;SDS011;48463;43.604;3.872;2023-04-24T07:08:47;8.45;;;3.15;;
62423;SDS011;48463;43.604;3.872;2023-04-24T07:11:13;5.53;;;2.90;;
62423;SDS011;48463;43.604;3.872;2023-04-24T07:13:40;5.70;;;2.67;;
62423;SDS011;48463;43.604;3.872;2023-04-24T07:16:07;7.90;;;3.33;;
62423;SDS011;48463;43.604;3.872;2023-04-24T07:18:33;14.35;;;3.22;;
62423;SDS011;48463;43.604;3.872;2023-04-24T07:21:01;15.27;;;3.70;;
62423;SDS011;48463;43.604;3.872;2023-04-24T07:23:28;6.90;;;3.05;;
62423;SDS011;48463;43.604;3.872;2023-04-24T07:25:57;13.32;;;3.10;;
62423;SDS011;48463;43.604;3.872;2023-04-24T07:28:24;11.52;;;3.05;;
62423;SDS011;48463;43.604;3.872;2023-04-24T07:30:51;11.30;;;3.92;;
62423;SDS011;48463;43.604;3.872;2023-04-24T07:33:18;9.68;;;2.75;;
62423;SDS011;48463;43.604;3.872;2023-04-24T07:35:44;13.32;;;3.60;;
62423;SDS011;48463;43.604;3.872;2023-04-24T07:38:10;4.93;;;2.60;;
62423;SDS011;48463;43.604;3.872;2023-04-24T07:40:36;6.93;;;2.33;;
62423;SDS011;48463;43.604;3.872;2023-04-24T07:43:03;6.47;;;2.63;;
62423;SDS011;48463;43.604;3.872;2023-04-24T07:45:28;5.47;;;2.47;;
62423;SDS011;48463;43.604;3.872;2023-04-24T07:47:56;9.70;;;3.20;;
62423;SDS011;48463;43.604;3.872;2023-04-24T07:50:22;5.93;;;2.13;;
62423;SDS011;48463;43.604;3.872;2023-04-24T07:52:47;6.03;;;3.10;;
62423;SDS011;48463;43.604;3.872;2023-04-24T07:55:13;5.80;;;2.22;;
62423;SDS011;48463;43.604;3.872;2023-04-24T07:57:39;6.65;;;2.35;;
62423;SDS011;48463;43.604;3.872;2023-04-24T08:00:05;5.90;;;2.63;;
62423;SDS011;48463;43.604;3.872;2023-04-24T08:02:31;8.27;;;2.92;;
62423;SDS011;48463;43.604;3.872;2023-04-24T08:04:57;8.85;;;3.05;;
62423;SDS011;48463;43.604;3.872;2023-04-24T08:07:25;8.40;;;2.65;;
62423;SDS011;48463;43.604;3.872;2023-04-24T08:09:51;6.38;;;2.25;;
62423;SDS011;48463;43.604;3.872;2023-04-24T08:12:17;9.77;;;2.70;;
62423;SDS011;48463;43.604;3.872;2023-04-24T08:14:45;7.13;;;1.88;;
62423;SDS011;48463;43.604;3.872;2023-04-24T08:17:11;15.55;;;2.50;;
62423;SDS011;48463;43.604;3.872;2023-04-24T08:19:37;4.03;;;2.03;;
62423;SDS011;48463;43.604;3.872;2023-04-24T08:22:02;8.35;;;2.38;;
62423;SDS011;48463;43.604;3.872;2023-04-24T08:24:29;4.20;;;1.48;;
62423;SDS011;48463;43.604;3.872;2023-04-24T08:26:55;11.20;;;1.95;;
62423;SDS011;48463;43.604;3.872;2023-04-24T08:29:22;2.80;;;1.30;;
62423;SDS011;48463;43.604;3.872;2023-04-24T08:31:48;5.80;;;1.80;;
62423;SDS011;48463;43.604;3.872;2023-04-24T08:34:14;4.15;;;1.77;;
62423;SDS011;48463;43.604;3.872;2023-04-24T08:36:41;2.42;;;1.30;;
62423;SDS011;48463;43.604;3.872;2023-04-24T08:39:07;3.30;;;1.70;;
62423;SDS011;48463;43.604;3.872;2023-04-24T08:41:34;4.90;;;1.50;;
62423;SDS011;48463;43.604;3.872;2023-04-24T08:44:01;6.50;;;2.05;;
62423;SDS011;48463;43.604;3.872;2023-04-24T08:46:27;2.33;;;1.40;;
62423;SDS011;48463;43.604;3.872;2023-04-24T08:48:55;2.92;;;1.63;;
62423;SDS011;48463;43.604;3.872;2023-04-24T08:51:21;6.57;;;2.08;;
62423;SDS011;48463;43.604;3.872;2023-04-24T08:53:48;9.00;;;2.03;;
62423;SDS011;48463;43.604;3.872;2023-04-24T08:56:16;3.95;;;1.63;;
62423;SDS011;48463;43.604;3.872;2023-04-24T08:58:43;7.57;;;2.17;;
62423;SDS011;48463;43.604;3.872;2023-04-24T09:01:09;5.43;;;1.63;;
62423;SDS011;48463;43.604;3.872;2023-04-24T09:03:36;9.27;;;1.85;;
62423;SDS011;48463;43.604;3.872;2023-04-24T09:06:02;4.82;;;1.85;;
62423;SDS011;48463;43.604;3.872;2023-04-24T09:08:31;3.75;;;1.88;;
62423;SDS011;48463;43.604;3.872;2023-04-24T09:10:58;3.83;;;1.98;;
62423;SDS011;48463;43.604;3.872;2023-04-24T09:13:26;7.03;;;1.92;;
62423;SDS011;48463;43.604;3.872;2023-04-24T09:15:52;3.30;;;1.75;;
62423;SDS011;48463;43.604;3.872;2023-04-24T09:18:19;3.20;;;1.67;;
62423;SDS011;48463;43.604;3.872;2023-04-24T09:21:06;6.90;;;1.98;;
62423;SDS011;48463;43.604;3.872;2023-04-24T09:23:33;2.00;;;1.30;;
62423;SDS011;48463;43.604;3.872;2023-04-24T09:26:00;8.52;;;2.78;;
62423;SDS011;48463;43.604;3.872;2023-04-24T09:28:36;5.45;;;2.53;;
62423;SDS011;48463;43.604;3.872;2023-04-24T09:31:14;8.07;;;2.53;;
62423;SDS011;48463;43.604;3.872;2023-04-24T09:34:00;4.03;;;2.05;;
62423;SDS011;48463;43.604;3.872;2023-04-24T09:36:29;5.25;;;2.15;;
62423;SDS011;48463;43.604;3.872;2023-04-24T09:39:03;7.03;;;2.03;;
62423;SDS011;48463;43.604;3.872;2023-04-24T09:41:31;6.47;;;2.35;;
62423;SDS011;48463;43.604;3.872;2023-04-24T09:43:58;4.80;;;2.03;;
62423;SDS011;48463;43.604;3.872;2023-04-24T09:46:40;11.70;;;3.53;;
62423;SDS011;48463;43.604;3.872;2023-04-24T09:49:08;4.45;;;1.80;;
62423;SDS011;48463;43.604;3.872;2023-04-24T09:51:36;4.63;;;1.60;;
62423;SDS011;48463;43.604;3.872;2023-04-24T09:54:03;2.50;;;1.33;;
62423;SDS011;48463;43.604;3.872;2023-04-24T09:56:33;4.50;;;1.75;;
62423;SDS011;48463;43.604;3.872;2023-04-24T09:59:05;3.78;;;1.65;;
62423;SDS011;48463;43.604;3.872;2023-04-24T10:01:32;10.48;;;2.65;;
62423;SDS011;48463;43.604;3.872;2023-04-24T10:03:59;5.78;;;1.98;;
62423;SDS011;48463;43.604;3.872;2023-04-24T10:06:33;4.18;;;1.73;;
62423;SDS011;48463;43.604;3.872;2023-04-24T10:08:59;2.08;;;1.40;;
62423;SDS011;48463;43.604;3.872;2023-04-24T10:11:29;3.70;;;1.73;;
62423;SDS011;48463;43.604;3.872;2023-04-24T10:13:55;5.47;;;1.88;;
62423;SDS011;48463;43.604;3.872;2023-04-24T10:16:22;5.07;;;1.70;;
62423;SDS011;48463;43.604;3.872;2023-04-24T10:18:52;3.13;;;1.35;;
62423;SDS011;48463;43.604;3.872;2023-04-24T10:21:19;6.68;;;1.52;;
62423;SDS011;48463;43.604;3.872;2023-04-24T10:23:46;3.15;;;1.58;;
62423;SDS011;48463;43.604;3.872;2023-04-24T10:26:14;6.65;;;2.10;;
62423;SDS011;48463;43.604;3.872;2023-04-24T10:28:46;1.95;;;1.50;;
62423;SDS011;48463;43.604;3.872;2023-04-24T10:31:17;2.53;;;1.52;;
62423;SDS011;48463;43.604;3.872;2023-04-24T10:33:44;3.63;;;1.10;;
62423;SDS011;48463;43.604;3.872;2023-04-24T10:36:11;5.38;;;1.98;;
62423;SDS011;48463;43.604;3.872;2023-04-24T10:38:42;4.40;;;1.58;;
62423;SDS011;48463;43.604;3.872;2023-04-24T10:41:11;3.22;;;1.77;;
62423;SDS011;48463;43.604;3.872;2023-04-24T10:44:06;3.05;;;1.85;;
62423;SDS011;48463;43.604;3.872;2023-04-24T10:46:33;3.78;;;1.75;;
62423;SDS011;48463;43.604;3.872;2023-04-24T10:48:59;2.58;;;1.30;;
62423;SDS011;48463;43.604;3.872;2023-04-24T10:51:44;20.48;;;2.40;;
62423;SDS011;48463;43.604;3.872;2023-04-24T10:56:52;3.15;;;1.20;;
62423;SDS011;48463;43.604;3.872;2023-04-24T10:59:38;1.75;;;1.17;;
62423;SDS011;48463;43.604;3.872;2023-04-24T11:02:04;4.80;;;1.75;;
62423;SDS011;48463;43.604;3.872;2023-04-24T11:04:33;4.55;;;2.38;;
62423;SDS011;48463;43.604;3.872;2023-04-24T11:07:00;6.88;;;1.65;;
62423;SDS011;48463;43.604;3.872;2023-04-24T11:09:27;4.18;;;1.90;;
62423;SDS011;48463;43.604;3.872;2023-04-24T11:12:13;4.13;;;2.20;;
62423;SDS011;48463;43.604;3.872;2023-04-24T11:17:32;4.45;;;1.95;;
62423;SDS011;48463;43.604;3.872;2023-04-24T11:20:06;3.28;;;1.90;;
62423;SDS011;48463;43.604;3.872;2023-04-24T11:22:34;15.82;;;3.38;;
62423;SDS011;48463;43.604;3.872;2023-04-24T11:25:04;8.90;;;4.45;;
62423;SDS011;48463;43.604;3.872;2023-04-24T11:27:37;5.03;;;1.98;;
62423;SDS011;48463;43.604;3.872;2023-04-24T11:30:05;2.92;;;1.55;;
62423;SDS011;48463;43.604;3.872;2023-04-24T11:37:55;4.55;;;1.45;;
62423;SDS011;48463;43.604;3.872;2023-04-24T11:40:22;2.97;;;1.10;;
62423;SDS011;48463;43.604;3.872;2023-04-24T11:42:49;3.47;;;1.65;;
62423;SDS011;48463;43.604;3.872;2023-04-24T11:47:43;2.55;;;1.30;;
62423;SDS011;48463;43.604;3.872;2023-04-24T11:50:11;12.77;;;2.55;;
62423;SDS011;48463;43.604;3.872;2023-04-24T11:52:39;7.55;;;2.15;;
62423;SDS011;48463;43.604;3.872;2023-04-24T11:55:24;6.20;;;1.80;;
62423;SDS011;48463;43.604;3.872;2023-04-24T11:57:58;7.15;;;1.45;;
62423;SDS011;48463;43.604;3.872;2023-04-24T12:00:25;2.15;;;1.27;;
62423;SDS011;48463;43.604;3.872;2023-04-24T12:03:03;37.60;;;10.48;;
62423;SDS011;48463;43.604;3.872;2023-04-24T12:05:30;4.50;;;1.80;;
62423;SDS011;48463;43.604;3.872;2023-04-24T12:07:56;4.28;;;1.67;;
62423;SDS011;48463;43.604;3.872;2023-04-24T12:10:26;4.78;;;1.30;;
62423;SDS011;48463;43.604;3.872;2023-04-24T12:12:55;3.60;;;1.83;;
62423;SDS011;48463;43.604;3.872;2023-04-24T12:15:22;3.08;;;1.42;;
62423;SDS011;48463;43.604;3.872;2023-04-24T12:17:50;5.65;;;1.20;;
62423;SDS011;48463;43.604;3.872;2023-04-24T12:20:16;4.00;;;1.50;;
62423;SDS011;48463;43.604;3.872;2023-04-24T12:22:58;3.15;;;1.60;;
62423;SDS011;48463;43.604;3.872;2023-04-24T12:25:26;3.22;;;1.38;;
62423;SDS011;48463;43.604;3.872;2023-04-24T12:27:54;20.65;;;14.82;;
62423;SDS011;48463;43.604;3.872;2023-04-24T12:30:20;2.58;;;1.40;;
62423;SDS011;48463;43.604;3.872;2023-04-24T12:32:47;3.60;;;1.98;;
62423;SDS011;48463;43.604;3.872;2023-04-24T12:35:21;6.80;;;2.22;;
62423;SDS011;48463;43.604;3.872;2023-04-24T12:37:48;7.45;;;2.60;;
62423;SDS011;48463;43.604;3.872;2023-04-24T12:40:14;7.70;;;2.03;;
62423;SDS011;48463;43.604;3.872;2023-04-24T12:45:09;2.75;;;1.45;;
62423;SDS011;48463;43.604;3.872;2023-04-24T12:47:37;3.33;;;1.90;;
62423;SDS011;48463;43.604;3.872;2023-04-24T12:50:03;4.22;;;1.70;;
62423;SDS011;48463;43.604;3.872;2023-04-24T12:52:30;5.00;;;2.00;;
62423;SDS011;48463;43.604;3.872;2023-04-24T12:54:57;5.72;;;2.10;;
62423;SDS011;48463;43.604;3.872;2023-04-24T12:57:25;3.33;;;1.30;;
62423;SDS011;48463;43.604;3.872;2023-04-24T12:59:55;3.08;;;1.60;;
62423;SDS011;48463;43.604;3.872;2023-04-24T13:02:25;4.03;;;1.50;;
62423;SDS011;48463;43.604;3.872;2023-04-24T13:04:52;2.45;;;1.50;;
62423;SDS011;48463;43.604;3.872;2023-04-24T13:07:18;5.00;;;2.05;;
62423;SDS011;48463;43.604;3.872;2023-04-24T13:09:44;3.85;;;1.80;;
62423;SDS011;48463;43.604;3.872;2023-04-24T13:12:10;6.60;;;2.22;;
62423;SDS011;48463;43.604;3.872;2023-04-24T13:14:37;6.57;;;1.80;;
62423;SDS011;48463;43.604;3.872;2023-04-24T13:17:03;6.07;;;2.15;;
62423;SDS011;48463;43.604;3.872;2023-04-24T13:19:29;3.33;;;1.63;;
62423;SDS011;48463;43.604;3.872;2023-04-24T13:22:00;2.80;;;1.30;;
62423;SDS011;48463;43.604;3.872;2023-04-24T13:24:26;8.48;;;3.63;;
62423;SDS011;48463;43.604;3.872;2023-04-24T13:26:51;3.00;;;1.65;;
62423;SDS011;48463;43.604;3.872;2023-04-24T13:29:17;11.68;;;3.13;;
62423;SDS011;48463;43.604;3.872;2023-04-24T13:31:43;11.52;;;2.83;;
62423;SDS011;48463;43.604;3.872;2023-04-24T13:34:09;5.63;;;1.92;;
62423;SDS011;48463;43.604;3.872;2023-04-24T13:36:35;4.03;;;1.80;;
62423;SDS011;48463;43.604;3.872;2023-04-24T13:39:02;4.88;;;1.52;;
62423;SDS011;48463;43.604;3.872;2023-04-24T13:41:32;5.22;;;1.83;;
62423;SDS011;48463;43.604;3.872;2023-04-24T13:43:58;4.25;;;1.88;;
62423;SDS011;48463;43.604;3.872;2023-04-24T13:46:24;4.35;;;1.80;;
62423;SDS011;48463;43.604;3.872;2023-04-24T13:48:49;6.35;;;2.47;;
62423;SDS011;48463;43.604;3.872;2023-04-24T13:51:15;3.28;;;1.95;;
62423;SDS011;48463;43.604;3.872;2023-04-24T13:53:40;5.53;;;1.85;;
62423;SDS011;48463;43.604;3.872;2023-04-24T13:56:06;6.32;;;2.53;;
62423;SDS011;48463;43.604;3.872;2023-04-24T13:58:32;7.47;;;2.15;;
62423;SDS011;48463;43.604;3.872;2023-04-24T14:00:58;8.65;;;2.08;;
62423;SDS011;48463;43.604;3.872;2023-04-24T14:03:24;3.10;;;1.88;;
62423;SDS011;48463;43.604;3.872;2023-04-24T14:05:49;10.15;;;3.25;;
62423;SDS011;48463;43.604;3.872;2023-04-24T14:08:16;16.45;;;2.75;;
62423;SDS011;48463;43.604;3.872;2023-04-24T14:10:42;5.38;;;2.15;;
62423;SDS011;48463;43.604;3.872;2023-04-24T14:13:08;4.10;;;2.08;;
62423;SDS011;48463;43.604;3.872;2023-04-24T14:15:37;5.82;;;2.03;;
62423;SDS011;48463;43.604;3.872;2023-04-24T14:18:03;4.82;;;2.15;;
62423;SDS011;48463;43.604;3.872;2023-04-24T14:20:29;7.43;;;2.63;;
62423;SDS011;48463;43.604;3.872;2023-04-24T14:22:54;5.90;;;2.10;;
62423;SDS011;48463;43.604;3.872;2023-04-24T14:25:20;3.55;;;1.73;;
62423;SDS011;48463;43.604;3.872;2023-04-24T14:27:47;3.50;;;2.08;;
62423;SDS011;48463;43.604;3.872;2023-04-24T14:30:13;5.45;;;2.42;;
62423;SDS011;48463;43.604;3.872;2023-04-24T14:32:40;6.53;;;2.28;;
62423;SDS011;48463;43.604;3.872;2023-04-24T14:35:06;4.13;;;1.90;;
62423;SDS011;48463;43.604;3.872;2023-04-24T14:37:34;3.40;;;1.83;;
62423;SDS011;48463;43.604;3.872;2023-04-24T14:40:06;3.10;;;1.58;;
62423;SDS011;48463;43.604;3.872;2023-04-24T14:42:32;5.18;;;2.20;;
62423;SDS011;48463;43.604;3.872;2023-04-24T14:44:59;4.43;;;2.03;;
62423;SDS011;48463;43.604;3.872;2023-04-24T14:47:24;6.75;;;1.75;;
62423;SDS011;48463;43.604;3.872;2023-04-24T14:49:50;8.63;;;2.60;;
62423;SDS011;48463;43.604;3.872;2023-04-24T14:52:16;7.85;;;2.30;;
62423;SDS011;48463;43.604;3.872;2023-04-24T14:54:42;4.65;;;2.00;;
62423;SDS011;48463;43.604;3.872;2023-04-24T14:57:08;6.88;;;1.92;;
62423;SDS011;48463;43.604;3.872;2023-04-24T14:59:34;4.40;;;2.60;;